Terminal Aerodrome Forecast
Issued by NWS Boise, ID

Home | Current Version | Previous Version | Text Only | Print | Product List | Glossary On
Versions: 1 2 3 4 5 6 7 8 9 10 11 12 13
000
FTUS45 KBOI 241938 AAA
TAFBNO
TAF AMD
KBNO 241938Z 2420/2518 05013KT P6SM -RA FEW015 OVC070
     FM242100 12006KT P6SM SCT070 BKN100
     FM250600 08005KT P6SM SCT120=

USA.gov is the U.S. government's official web portal to all federal, state and local government web resources and services.